Time;durP1;ratioP1;P1;durP2;ratioP2;P2;SDS_P1;SDS_P2;PMS_P1;PMS_P2;Temp;Humidity;BMP_temperature;BMP_pressure;BME280_temperature;BME280_humidity;BME280_pressure;Samples;Min_cycle;Max_cycle;Signal;HPM_P1;HPM_P2
2022/07/30 00:00:06;;;;;;;13.35;11.12;;;28.40;99.90;;;;;;1850076;77;21207;-81
2022/07/30 00:02:37;;;;;;;17.73;11.57;;;28.40;99.90;;;;;;1848017;75;21090;-80
2022/07/30 00:05:09;;;;;;;13.35;10.90;;;28.40;99.90;;;;;;1847555;77;21582;-80
2022/07/30 00:07:40;;;;;;;14.45;10.53;;;28.50;99.90;;;;;;1849876;76;21063;-81
2022/07/30 00:10:11;;;;;;;17.62;11.60;;;28.50;99.90;;;;;;1850687;75;21654;-80
2022/07/30 00:12:42;;;;;;;19.92;10.53;;;28.50;99.90;;;;;;1846723;75;21486;-79
2022/07/30 00:15:13;;;;;;;17.98;10.75;;;28.50;99.90;;;;;;1841899;75;21232;-80
2022/07/30 00:17:44;;;;;;;18.55;11.20;;;28.50;99.90;;;;;;1825452;75;21167;-83
2022/07/30 00:20:17;;;;;;;15.30;9.98;;;28.60;99.90;;;;;;1846257;75;21131;-80
2022/07/30 00:22:48;;;;;;;13.05;10.15;;;28.60;99.90;;;;;;1842976;77;21763;-80
2022/07/30 00:25:19;;;;;;;16.42;10.15;;;28.70;99.90;;;;;;1826290;76;21207;-80
2022/07/30 00:27:50;;;;;;;13.58;10.40;;;28.70;99.90;;;;;;1853927;77;21480;-80
2022/07/30 00:30:21;;;;;;;15.15;10.18;;;28.70;99.90;;;;;;1858361;76;21777;-82
2022/07/30 00:32:52;;;;;;;18.35;10.90;;;28.80;99.90;;;;;;1853889;75;21126;-80
2022/07/30 00:35:23;;;;;;;12.23;10.63;;;28.80;99.90;;;;;;1857881;77;21153;-80
2022/07/30 00:38:01;;;;;;;14.47;10.45;;;28.80;99.90;;;;;;1848406;77;21116;-81
2022/07/30 00:40:32;;;;;;;16.95;10.88;;;28.80;99.90;;;;;;1842560;77;21131;-80
2022/07/30 00:43:03;;;;;;;13.28;10.35;;;28.80;99.90;;;;;;1836458;76;21137;-80
2022/07/30 00:45:35;;;;;;;18.67;11.05;;;28.80;99.90;;;;;;1840473;77;21144;-81
2022/07/30 00:48:06;;;;;;;21.25;11.25;;;28.80;99.90;;;;;;1836854;78;21141;-81
2022/07/30 00:50:37;;;;;;;20.32;10.45;;;28.80;99.90;;;;;;1824603;77;21076;-81
2022/07/30 00:53:14;;;;;;;15.70;11.53;;;28.80;99.90;;;;;;1831778;77;21156;-81
2022/07/30 00:55:42;;;;;;;16.40;11.80;;;28.80;99.90;;;;;;1829115;76;21136;-80
2022/07/30 00:58:13;;;;;;;15.48;11.90;;;28.80;99.90;;;;;;1828701;77;21144;-82
2022/07/30 01:00:44;;;;;;;17.10;12.45;;;28.90;99.90;;;;;;1841760;77;21165;-80
2022/07/30 01:03:15;;;;;;;15.23;12.20;;;28.90;99.90;;;;;;1849571;77;21274;-80
2022/07/30 01:05:46;;;;;;;16.17;12.18;;;28.90;99.90;;;;;;1835409;76;21163;-81
2022/07/30 01:08:17;;;;;;;17.25;12.70;;;28.90;99.90;;;;;;1838053;76;21585;-81
2022/07/30 01:10:48;;;;;;;13.32;11.73;;;29.00;99.90;;;;;;1834526;77;21137;-81
2022/07/30 01:13:19;;;;;;;19.45;13.58;;;29.00;99.90;;;;;;1836966;76;21231;-80
2022/07/30 01:15:50;;;;;;;23.85;13.28;;;29.10;99.90;;;;;;1833730;76;21134;-83
2022/07/30 01:18:22;;;;;;;18.23;13.53;;;29.10;99.90;;;;;;1843970;76;21083;-82
2022/07/30 01:20:55;;;;;;;17.27;13.38;;;29.10;99.90;;;;;;1835711;76;21135;-82
2022/07/30 01:23:29;;;;;;;21.55;14.10;;;29.20;99.90;;;;;;1837230;77;21530;-82
2022/07/30 01:26:00;;;;;;;21.75;13.78;;;29.20;99.90;;;;;;1828694;77;21071;-82
2022/07/30 01:28:34;;;;;;;20.08;13.38;;;29.30;99.90;;;;;;1833541;77;21172;-81
2022/07/30 01:31:06;;;;;;;18.55;14.20;;;29.30;99.90;;;;;;1828539;77;21145;-81
2022/07/30 01:33:40;;;;;;;16.37;12.98;;;29.40;99.90;;;;;;1834592;77;21146;-81
2022/07/30 01:36:13;;;;;;;21.05;14.35;;;29.40;99.90;;;;;;1834400;77;21150;-81
2022/07/30 01:38:45;;;;;;;15.60;13.10;;;29.50;99.90;;;;;;1829281;77;21137;-81
2022/07/30 01:41:18;;;;;;;14.73;12.40;;;29.60;99.70;;;;;;1835709;77;21161;-81
2022/07/30 01:43:49;;;;;;;17.00;12.47;;;29.60;99.50;;;;;;1836736;77;21129;-81
2022/07/30 01:46:21;;;;;;;15.60;11.80;;;29.60;99.20;;;;;;1835324;76;21212;-81
2022/07/30 01:48:53;;;;;;;14.30;12.65;;;29.70;99.30;;;;;;1825526;77;21113;-80
2022/07/30 01:51:32;;;;;;;15.75;13.53;;;29.70;99.30;;;;;;1841754;77;21221;-81
2022/07/30 01:54:03;;;;;;;16.48;13.55;;;29.80;99.30;;;;;;1828313;77;21091;-80
2022/07/30 01:56:37;;;;;;;14.75;12.85;;;29.90;99.20;;;;;;1829494;77;21145;-81
2022/07/30 01:59:10;;;;;;;15.30;13.70;;;29.90;99.00;;;;;;1835235;77;21148;-81
2022/07/30 02:01:41;;;;;;;15.95;13.35;;;29.90;99.00;;;;;;1852089;75;21159;-80
2022/07/30 02:04:12;;;;;;;15.78;13.68;;;30.00;99.10;;;;;;1880661;75;21092;-81
2022/07/30 02:06:45;;;;;;;15.25;13.65;;;30.00;99.00;;;;;;1879526;75;21198;-81
2022/07/30 02:09:20;;;;;;;17.27;14.28;;;30.00;99.10;;;;;;1875574;75;21148;-82
2022/07/30 02:14:28;;;;;;;14.15;12.65;;;30.10;98.80;;;;;;1880037;75;21120;-81
2022/07/30 02:17:00;;;;;;;15.00;13.38;;;30.20;98.60;;;;;;1879617;75;21081;-81
2022/07/30 02:19:34;;;;;;;16.12;12.82;;;30.20;98.60;;;;;;1877817;75;21598;-80
2022/07/30 02:22:09;;;;;;;18.30;13.95;;;30.20;98.50;;;;;;1876232;75;21535;-80
2022/07/30 02:24:43;;;;;;;16.07;13.75;;;30.30;98.70;;;;;;1877552;75;21187;-81
2022/07/30 02:27:16;;;;;;;15.25;13.65;;;30.30;98.60;;;;;;1882775;75;21162;-80
2022/07/30 02:29:48;;;;;;;14.70;13.08;;;30.30;98.30;;;;;;1880588;75;21136;-82
2022/07/30 02:32:22;;;;;;;14.45;12.95;;;30.40;98.30;;;;;;1876899;75;21128;-79
2022/07/30 02:34:57;;;;;;;16.23;14.10;;;30.40;98.10;;;;;;1879865;75;21169;-82
2022/07/30 02:37:29;;;;;;;17.05;13.98;;;30.40;98.40;;;;;;1885838;75;21254;-79
2022/07/30 02:40:02;;;;;;;17.23;14.47;;;30.50;98.30;;;;;;1882183;75;21204;-79
2022/07/30 02:42:34;;;;;;;23.05;13.50;;;30.50;98.40;;;;;;1881950;75;21970;-80
2022/07/30 02:45:06;;;;;;;14.20;12.70;;;30.60;98.00;;;;;;1833953;78;21129;-79
2022/07/30 02:47:38;;;;;;;19.10;14.20;;;30.60;97.80;;;;;;1840465;77;21143;-79
2022/07/30 02:50:10;;;;;;;15.25;12.73;;;30.70;97.70;;;;;;1827544;77;21121;-80
2022/07/30 02:52:42;;;;;;;16.40;12.45;;;30.70;97.70;;;;;;1802628;78;21147;-79
2022/07/30 02:55:16;;;;;;;15.45;13.40;;;30.80;97.60;;;;;;1852643;76;21106;-79
2022/07/30 02:57:48;;;;;;;15.50;13.22;;;30.80;97.50;;;;;;1878468;75;21100;-80
2022/07/30 03:00:20;;;;;;;15.30;13.30;;;30.90;97.60;;;;;;1876910;75;21155;-80
2022/07/30 03:02:54;;;;;;;14.87;11.57;;;31.00;97.20;;;;;;1881689;75;21600;-80
2022/07/30 03:05:27;;;;;;;14.47;12.85;;;31.10;97.10;;;;;;1882071;75;21422;-79
2022/07/30 03:08:00;;;;;;;15.58;13.08;;;31.20;96.60;;;;;;1869457;75;21124;-80
2022/07/30 03:10:31;;;;;;;12.85;11.50;;;31.20;96.40;;;;;;1880963;75;21592;-79
2022/07/30 03:13:09;;;;;;;14.28;10.95;;;31.30;95.90;;;;;;1874421;75;21146;-80
2022/07/30 03:15:39;;;;;;;16.95;12.60;;;31.40;95.70;;;;;;1897235;74;21065;-79
2022/07/30 03:18:30;;;;;;;16.87;12.10;;;31.40;95.90;;;;;;1878536;75;21156;-78
2022/07/30 03:21:03;;;;;;;13.07;11.17;;;31.50;95.80;;;;;;1882206;75;21115;-79
2022/07/30 03:23:37;;;;;;;14.63;10.82;;;31.50;95.40;;;;;;1877841;75;21713;-79
2022/07/30 03:26:11;;;;;;;12.90;11.65;;;31.60;95.30;;;;;;1871156;75;21136;-79
2022/07/30 03:28:44;;;;;;;11.88;10.68;;;31.70;95.30;;;;;;1878264;75;21249;-83
2022/07/30 03:31:16;;;;;;;13.62;11.53;;;31.70;95.10;;;;;;1879718;75;21160;-82
2022/07/30 03:33:47;;;;;;;14.60;11.00;;;31.80;95.30;;;;;;1879672;75;21138;-79
2022/07/30 03:36:19;;;;;;;12.35;9.98;;;31.90;95.30;;;;;;1832694;78;21121;-80
2022/07/30 03:38:54;;;;;;;13.50;10.03;;;31.90;94.30;;;;;;1829299;76;21095;-81
2022/07/30 03:41:27;;;;;;;12.50;9.58;;;32.00;94.50;;;;;;1820269;77;21134;-79
2022/07/30 03:44:00;;;;;;;10.70;9.63;;;32.10;93.90;;;;;;1790322;79;21915;-80
2022/07/30 03:46:32;;;;;;;16.07;10.72;;;32.20;93.70;;;;;;1828727;76;21047;-81
2022/07/30 03:49:04;;;;;;;12.33;10.18;;;32.30;93.20;;;;;;1811080;78;21149;-79
2022/07/30 03:51:37;;;;;;;12.23;9.23;;;32.40;93.10;;;;;;1835465;76;21163;-78
2022/07/30 03:54:10;;;;;;;12.93;9.85;;;32.40;92.90;;;;;;1829928;76;21138;-81
2022/07/30 03:56:43;;;;;;;12.23;10.32;;;32.40;92.80;;;;;;1837445;77;21254;-80
2022/07/30 03:59:15;;;;;;;15.80;9.73;;;32.50;93.20;;;;;;1833603;78;21161;-79
2022/07/30 04:01:46;;;;;;;9.95;8.95;;;32.50;92.40;;;;;;1837562;76;21129;-81
2022/07/30 04:04:17;;;;;;;11.10;8.85;;;32.60;92.50;;;;;;1829822;78;21279;-80
2022/07/30 04:06:49;;;;;;;13.10;9.65;;;32.70;92.30;;;;;;1807743;78;21117;-80
2022/07/30 04:09:19;;;;;;;12.10;10.40;;;32.80;92.20;;;;;;1846614;76;21130;-81
2022/07/30 04:11:51;;;;;;;15.23;13.65;;;32.80;92.30;;;;;;1829673;77;21138;-81
2022/07/30 04:14:22;;;;;;;10.28;9.28;;;32.80;92.20;;;;;;1823997;77;21070;-80
2022/07/30 04:16:55;;;;;;;11.45;9.68;;;32.90;91.90;;;;;;1801253;77;21144;-79
2022/07/30 04:19:29;;;;;;;10.48;9.38;;;33.00;91.90;;;;;;1807778;78;21147;-80
2022/07/30 04:22:02;;;;;;;10.10;9.10;;;33.00;92.20;;;;;;1816288;77;21676;-80
2022/07/30 04:24:35;;;;;;;10.75;9.18;;;33.10;92.60;;;;;;1833693;77;21095;-80
2022/07/30 04:27:06;;;;;;;10.50;8.85;;;33.30;91.90;;;;;;1839191;76;21166;-80
2022/07/30 04:29:37;;;;;;;10.18;9.03;;;33.30;91.30;;;;;;1816897;77;21490;-81
2022/07/30 04:32:09;;;;;;;10.65;9.13;;;33.40;91.20;;;;;;1802067;77;21259;-80
2022/07/30 04:34:43;;;;;;;10.72;9.63;;;33.30;91.10;;;;;;1827104;77;21106;-80
2022/07/30 04:37:16;;;;;;;11.65;9.35;;;33.30;91.30;;;;;;1811303;77;21208;-80
2022/07/30 04:39:50;;;;;;;10.90;9.40;;;33.30;91.40;;;;;;1826810;77;21221;-80
2022/07/30 04:42:19;;;;;;;10.78;9.68;;;33.20;91.60;;;;;;1842131;76;21241;-81
2022/07/30 04:44:50;;;;;;;10.35;8.93;;;33.30;91.40;;;;;;1835669;77;21224;-80
2022/07/30 04:47:22;;;;;;;10.18;9.05;;;33.40;90.60;;;;;;1812867;77;21688;-81
2022/07/30 04:49:55;;;;;;;11.57;9.55;;;33.40;91.60;;;;;;1816280;77;21192;-80
2022/07/30 04:52:26;;;;;;;12.50;9.38;;;33.40;90.70;;;;;;1833560;77;21145;-80
2022/07/30 04:55:01;;;;;;;10.72;9.63;;;33.40;91.10;;;;;;1858374;75;21092;-80
2022/07/30 04:57:33;;;;;;;10.10;9.05;;;33.60;91.30;;;;;;1885184;75;21091;-81
2022/07/30 05:00:07;;;;;;;11.63;8.98;;;33.60;91.40;;;;;;1886819;74;21572;-81
2022/07/30 05:02:40;;;;;;;12.23;8.70;;;33.70;90.30;;;;;;1887202;74;21606;-80
2022/07/30 05:05:13;;;;;;;11.20;8.58;;;33.70;90.40;;;;;;1874115;75;21195;-80
2022/07/30 05:07:45;;;;;;;9.45;8.45;;;33.80;90.30;;;;;;1881691;75;21147;-80
2022/07/30 05:10:17;;;;;;;8.68;7.87;;;33.80;89.90;;;;;;1880127;75;21132;-81
2022/07/30 05:12:49;;;;;;;10.25;8.23;;;33.80;89.50;;;;;;1893808;75;21116;-79
2022/07/30 05:15:20;;;;;;;9.38;8.50;;;33.90;89.30;;;;;;1881993;75;21201;-81
2022/07/30 05:17:52;;;;;;;12.60;8.88;;;33.90;88.10;;;;;;1868058;75;21068;-80
2022/07/30 05:20:23;;;;;;;9.73;8.73;;;33.90;89.00;;;;;;1883804;75;21124;-81
2022/07/30 05:22:53;;;;;;;10.35;8.00;;;34.00;88.40;;;;;;1865351;75;21144;-79
2022/07/30 05:25:24;;;;;;;9.03;8.18;;;34.00;88.00;;;;;;1790739;79;21170;-80
2022/07/30 05:27:58;;;;;;;8.10;7.00;;;34.10;87.70;;;;;;1818481;78;22082;-79
2022/07/30 05:30:27;;;;;;;10.53;7.33;;;34.20;86.60;;;;;;1801367;78;21563;-81
2022/07/30 05:32:58;;;;;;;8.83;7.92;;;34.30;85.30;;;;;;1864299;75;22154;-81
2022/07/30 05:35:30;;;;;;;9.10;8.20;;;34.30;85.10;;;;;;1882452;75;21080;-81
2022/07/30 05:38:02;;;;;;;8.50;7.67;;;34.20;85.00;;;;;;1794824;78;21168;-79
2022/07/30 05:40:33;;;;;;;9.68;8.38;;;34.10;85.90;;;;;;1816056;77;21162;-80
2022/07/30 05:43:05;;;;;;;8.60;7.47;;;34.10;85.90;;;;;;1820498;77;21131;-79
2022/07/30 05:45:39;;;;;;;9.03;8.20;;;34.10;85.80;;;;;;1829214;77;21761;-81
2022/07/30 05:48:10;;;;;;;10.75;7.78;;;34.20;84.80;;;;;;1883634;75;21080;-79
2022/07/30 05:50:41;;;;;;;11.88;7.83;;;34.20;84.10;;;;;;1877999;75;21175;-79
2022/07/30 05:53:12;;;;;;;8.48;7.47;;;34.20;84.00;;;;;;1888678;75;21124;-81
2022/07/30 05:55:47;;;;;;;11.18;7.80;;;34.30;83.60;;;;;;1883521;75;21103;-81
2022/07/30 05:58:18;;;;;;;8.30;7.10;;;34.30;82.70;;;;;;1871440;75;21112;-81
2022/07/30 06:00:49;;;;;;;7.78;5.92;;;34.30;81.90;;;;;;1877766;75;21647;-80
2022/07/30 06:03:20;;;;;;;9.05;6.10;;;34.30;79.70;;;;;;1889674;75;21156;-80
2022/07/30 06:05:50;;;;;;;9.50;7.33;;;34.30;77.90;;;;;;1880113;75;21140;-81
2022/07/30 06:08:21;;;;;;;7.70;6.90;;;34.30;80.10;;;;;;1872930;75;21080;-79
2022/07/30 06:10:52;;;;;;;6.95;6.22;;;34.20;82.00;;;;;;1870766;75;21135;-79
2022/07/30 06:13:25;;;;;;;7.85;5.87;;;34.30;79.40;;;;;;1890275;74;21196;-79
2022/07/30 06:15:56;;;;;;;11.15;6.25;;;34.30;79.30;;;;;;1878423;75;21673;-80
2022/07/30 06:18:28;;;;;;;8.05;6.70;;;34.30;80.60;;;;;;1886752;75;21163;-78
2022/07/30 06:20:59;;;;;;;8.08;6.30;;;34.40;81.10;;;;;;1886732;74;21164;-81
2022/07/30 06:23:30;;;;;;;6.95;5.60;;;34.40;80.80;;;;;;1864529;75;21108;-80
2022/07/30 06:26:01;;;;;;;6.80;5.90;;;34.40;76.80;;;;;;1864115;75;21532;-80
2022/07/30 06:28:32;;;;;;;7.15;5.67;;;34.40;78.80;;;;;;1844871;76;21114;-80
2022/07/30 06:31:05;;;;;;;6.53;5.78;;;34.40;77.20;;;;;;1787084;78;21106;-80
2022/07/30 06:33:36;;;;;;;8.73;7.55;;;34.50;77.50;;;;;;1841588;76;21162;-80
2022/07/30 06:36:07;;;;;;;6.80;6.10;;;34.50;80.50;;;;;;1822721;78;21103;-80
2022/07/30 06:38:39;;;;;;;9.63;7.70;;;34.50;81.80;;;;;;1883847;74;21224;-80
2022/07/30 06:41:11;;;;;;;8.78;6.70;;;34.50;82.30;;;;;;1873728;75;21143;-81
2022/07/30 06:43:42;;;;;;;13.55;7.00;;;34.50;82.00;;;;;;1866659;75;21123;-81
2022/07/30 06:46:13;;;;;;;8.20;6.25;;;34.50;81.20;;;;;;1834689;78;21667;-81
2022/07/30 06:48:44;;;;;;;7.78;7.08;;;34.40;80.80;;;;;;1844340;78;21183;-81
2022/07/30 06:51:15;;;;;;;7.90;6.65;;;34.40;81.80;;;;;;1832925;77;21083;-79
2022/07/30 06:53:47;;;;;;;8.28;6.80;;;34.30;80.70;;;;;;1832726;78;21215;-79
2022/07/30 06:56:25;;;;;;;9.88;6.62;;;34.20;81.30;;;;;;1836866;78;21102;-79
2022/07/30 06:58:53;;;;;;;10.50;7.00;;;34.20;81.70;;;;;;1842860;77;21696;-80
2022/07/30 07:01:24;;;;;;;13.98;7.45;;;34.20;82.30;;;;;;1840506;77;21102;-80
2022/07/30 07:03:55;;;;;;;11.83;6.85;;;34.10;81.90;;;;;;1823935;77;21152;-80
2022/07/30 07:06:26;;;;;;;8.30;7.30;;;34.00;81.50;;;;;;1822385;78;21150;-79
2022/07/30 07:08:57;;;;;;;9.85;6.58;;;33.90;82.10;;;;;;1874456;75;21908;-81
2022/07/30 07:11:28;;;;;;;10.95;6.50;;;33.80;81.90;;;;;;1875969;75;21150;-80
2022/07/30 07:13:59;;;;;;;9.35;7.25;;;33.80;81.70;;;;;;1862326;75;21127;-79
2022/07/30 07:16:32;;;;;;;7.47;6.33;;;33.80;81.90;;;;;;1834672;77;21224;-80
2022/07/30 07:19:02;;;;;;;8.40;7.30;;;33.80;83.40;;;;;;1810550;77;21196;-80
2022/07/30 07:21:33;;;;;;;8.03;6.28;;;33.90;83.80;;;;;;1873454;75;21167;-81
2022/07/30 07:24:04;;;;;;;7.67;6.78;;;34.00;81.50;;;;;;1788147;78;21202;-79
2022/07/30 07:26:36;;;;;;;8.15;6.60;;;34.10;81.90;;;;;;1831375;77;21206;-80
2022/07/30 07:29:07;;;;;;;8.28;7.17;;;34.20;81.60;;;;;;1835184;76;21162;-79
2022/07/30 07:31:38;;;;;;;10.00;7.70;;;34.20;83.30;;;;;;1843115;76;21185;-79
2022/07/30 07:34:10;;;;;;;9.00;6.90;;;34.40;83.10;;;;;;1827807;77;21137;-79
2022/07/30 07:36:43;;;;;;;7.42;6.72;;;34.50;82.30;;;;;;1813309;77;21157;-79
2022/07/30 07:39:17;;;;;;;9.93;7.37;;;34.50;82.80;;;;;;1813164;77;21554;-78
2022/07/30 07:41:48;;;;;;;8.20;6.50;;;34.50;81.80;;;;;;1879547;75;21124;-79
2022/07/30 07:44:20;;;;;;;7.28;6.55;;;34.50;82.30;;;;;;1884707;75;21112;-79
2022/07/30 07:46:51;;;;;;;9.68;7.08;;;34.50;81.00;;;;;;1879478;75;21188;-80
2022/07/30 07:49:22;;;;;;;9.30;7.40;;;34.50;81.40;;;;;;1880107;75;21155;-81
2022/07/30 07:51:53;;;;;;;10.30;6.97;;;34.40;80.70;;;;;;1885980;75;21128;-80
2022/07/30 07:54:24;;;;;;;7.90;7.10;;;34.40;81.90;;;;;;1878478;75;21152;-80
2022/07/30 07:56:55;;;;;;;7.97;6.60;;;34.30;80.60;;;;;;1879155;75;21104;-79
2022/07/30 07:59:30;;;;;;;7.75;5.87;;;34.30;80.90;;;;;;1877369;75;21602;-79
2022/07/30 08:02:02;;;;;;;8.60;6.62;;;34.30;80.40;;;;;;1874121;73;21109;-79
2022/07/30 08:04:35;;;;;;;7.58;6.58;;;34.40;79.60;;;;;;1868612;75;21135;-80
2022/07/30 08:07:06;;;;;;;7.20;6.20;;;34.40;80.30;;;;;;1877356;75;21123;-81
2022/07/30 08:09:40;;;;;;;7.92;6.62;;;34.50;80.90;;;;;;1878830;75;21123;-78
2022/07/30 08:12:13;;;;;;;9.33;6.95;;;34.50;79.90;;;;;;1869543;75;21127;-79
2022/07/30 08:14:44;;;;;;;7.22;6.53;;;34.60;80.10;;;;;;1825993;77;21207;-80
2022/07/30 08:17:15;;;;;;;7.80;6.87;;;34.60;79.90;;;;;;1830823;77;21079;-81
2022/07/30 08:19:47;;;;;;;8.20;6.83;;;34.70;80.20;;;;;;1844159;75;21125;-80
2022/07/30 08:22:18;;;;;;;9.95;6.85;;;34.70;80.60;;;;;;1846432;74;21110;-81
2022/07/30 08:24:49;;;;;;;9.65;7.28;;;34.70;80.40;;;;;;1846324;76;21062;-79
2022/07/30 08:27:20;;;;;;;10.58;7.15;;;34.70;79.20;;;;;;1830165;78;21179;-78
2022/07/30 08:29:51;;;;;;;8.13;7.00;;;34.70;79.30;;;;;;1837469;78;21624;-80
2022/07/30 08:32:22;;;;;;;10.93;7.55;;;34.70;79.90;;;;;;1823050;77;21109;-79
2022/07/30 08:34:53;;;;;;;9.08;7.47;;;34.70;80.40;;;;;;1840184;77;21165;-80
2022/07/30 08:37:24;;;;;;;13.28;8.10;;;34.70;80.50;;;;;;1827437;78;21203;-79
2022/07/30 08:39:55;;;;;;;11.08;7.30;;;34.70;80.20;;;;;;1831636;78;21597;-80
2022/07/30 08:42:28;;;;;;;7.80;6.92;;;34.60;81.80;;;;;;1837603;78;21222;-80
2022/07/30 08:45:05;;;;;;;7.75;6.95;;;34.60;81.50;;;;;;1833746;78;21132;-79
2022/07/30 08:47:36;;;;;;;11.55;7.25;;;34.60;80.80;;;;;;1838033;77;21204;-83
2022/07/30 08:50:08;;;;;;;8.85;6.42;;;34.50;81.70;;;;;;1832882;78;21649;-81
2022/07/30 08:52:47;;;;;;;10.95;6.78;;;34.40;80.10;;;;;;1834581;77;21179;-81
2022/07/30 08:55:33;;;;;;;9.48;6.87;;;34.40;80.50;;;;;;1822273;77;21702;-80
2022/07/30 08:58:06;;;;;;;10.30;6.80;;;34.40;81.70;;;;;;1821417;77;21136;-80
2022/07/30 09:00:37;;;;;;;8.48;6.25;;;34.30;82.10;;;;;;1824860;77;21216;-81
2022/07/30 09:03:11;;;;;;;6.53;5.92;;;34.30;80.40;;;;;;1828044;78;21258;-81
2022/07/30 09:05:42;;;;;;;7.67;6.87;;;34.30;79.60;;;;;;1839989;76;21143;-80
2022/07/30 09:08:13;;;;;;;9.30;7.80;;;34.30;79.50;;;;;;1813654;77;21249;-80
2022/07/30 09:10:51;;;;;;;8.93;7.37;;;34.30;80.00;;;;;;1810895;77;21080;-81
2022/07/30 09:13:28;;;;;;;8.05;6.45;;;34.30;80.70;;;;;;1881372;75;21167;-81
2022/07/30 09:16:02;;;;;;;10.88;6.65;;;34.30;80.60;;;;;;1873783;75;21617;-82
2022/07/30 09:18:36;;;;;;;8.43;6.35;;;34.40;82.70;;;;;;1857865;74;21194;-80
2022/07/30 09:21:10;;;;;;;9.30;7.28;;;34.40;82.10;;;;;;1876888;75;21112;-81
2022/07/30 09:23:41;;;;;;;8.05;6.45;;;34.30;81.40;;;;;;1872141;75;21178;-80
2022/07/30 09:26:16;;;;;;;8.28;6.85;;;34.20;81.90;;;;;;1881290;74;21096;-80
2022/07/30 09:28:52;;;;;;;8.13;6.45;;;34.20;82.10;;;;;;1885614;75;21180;-81
2022/07/30 09:31:26;;;;;;;7.75;6.20;;;34.20;82.50;;;;;;1866532;75;21230;-81
2022/07/30 09:33:57;;;;;;;9.65;7.12;;;34.20;82.60;;;;;;1880716;75;21135;-80
2022/07/30 09:36:30;;;;;;;7.05;6.42;;;34.20;82.90;;;;;;1885916;75;21077;-80
2022/07/30 09:39:01;;;;;;;8.85;7.55;;;34.10;82.50;;;;;;1878091;75;21139;-79
2022/07/30 09:41:38;;;;;;;9.18;6.67;;;34.10;83.60;;;;;;1841104;78;21231;-81
2022/07/30 09:44:12;;;;;;;10.50;6.87;;;34.10;83.40;;;;;;1805529;78;21133;-80
2022/07/30 09:46:52;;;;;;;8.38;6.75;;;34.10;83.20;;;;;;1842547;76;21110;-80
2022/07/30 09:49:20;;;;;;;9.90;7.33;;;34.00;83.30;;;;;;1822821;77;21135;-81
2022/07/30 09:51:52;;;;;;;11.75;6.62;;;33.90;84.10;;;;;;1819653;77;21707;-81
2022/07/30 09:54:27;;;;;;;7.67;6.87;;;33.90;83.80;;;;;;1884045;75;21672;-80
2022/07/30 09:57:01;;;;;;;8.48;6.15;;;33.90;83.90;;;;;;1879533;75;21096;-81
2022/07/30 09:59:33;;;;;;;6.75;6.15;;;33.90;83.50;;;;;;1872299;75;21709;-81
2022/07/30 10:02:04;;;;;;;7.65;6.65;;;33.80;83.00;;;;;;1877788;75;21183;-81
2022/07/30 10:04:37;;;;;;;11.38;6.87;;;33.80;84.00;;;;;;1876987;75;21159;-81
2022/07/30 10:07:28;;;;;;;9.25;6.55;;;33.70;83.30;;;;;;1878922;75;21162;-80
2022/07/30 10:10:02;;;;;;;7.67;5.97;;;33.80;83.50;;;;;;1855818;75;21143;-79
2022/07/30 10:12:35;;;;;;;8.18;6.30;;;33.70;83.80;;;;;;1866912;75;21123;-79
2022/07/30 10:15:09;;;;;;;9.08;6.37;;;33.60;83.60;;;;;;1884443;75;21583;-81
2022/07/30 10:17:41;;;;;;;6.45;5.58;;;33.60;83.60;;;;;;1873798;75;21611;-78
2022/07/30 10:20:17;;;;;;;9.63;6.60;;;33.50;83.20;;;;;;1845403;75;21126;-79
2022/07/30 10:22:54;;;;;;;6.83;5.92;;;33.50;83.20;;;;;;1876793;75;21587;-79
2022/07/30 10:25:27;;;;;;;9.35;6.10;;;33.50;83.10;;;;;;1878119;75;21698;-79
2022/07/30 10:28:15;;;;;;;8.05;5.92;;;33.50;83.10;;;;;;1895927;75;21116;-81
2022/07/30 10:31:04;;;;;;;6.58;5.90;;;33.50;83.20;;;;;;1799822;76;21259;-78
2022/07/30 10:33:41;;;;;;;7.20;5.78;;;33.50;83.00;;;;;;1904580;74;21141;-80
2022/07/30 10:36:17;;;;;;;11.57;5.85;;;33.40;82.00;;;;;;1857902;75;21175;-79
2022/07/30 10:38:54;;;;;;;10.05;6.35;;;33.40;82.60;;;;;;1865449;75;21134;-80
2022/07/30 10:41:27;;;;;;;7.85;5.83;;;33.40;82.10;;;;;;1872873;75;21220;-80
2022/07/30 10:44:03;;;;;;;6.90;5.80;;;33.40;82.10;;;;;;1900688;75;21182;-80
2022/07/30 10:46:36;;;;;;;11.10;6.00;;;33.30;82.60;;;;;;1911567;75;21126;-82
2022/07/30 10:49:15;;;;;;;7.85;5.85;;;33.30;82.30;;;;;;1877026;75;21398;-81
2022/07/30 10:51:56;;;;;;;;;;;33.30;81.80;;;;;;1885782;74;21144;-83
2022/07/30 10:54:34;;;;;;;8.93;5.75;;;33.20;82.30;;;;;;1906002;75;20257;-79
2022/07/30 10:57:05;;;;;;;7.75;5.35;;;33.20;82.70;;;;;;1863245;74;21136;-80
2022/07/30 10:59:38;;;;;;;7.78;5.87;;;33.20;82.60;;;;;;1839935;77;21146;-80
2022/07/30 11:02:11;;;;;;;8.08;6.25;;;33.20;82.80;;;;;;1761116;78;21154;-81
2022/07/30 11:04:46;;;;;;;9.10;6.80;;;33.10;82.80;;;;;;1771336;80;21443;-80
2022/07/30 11:07:23;;;;;;;9.55;5.72;;;33.10;83.50;;;;;;1787356;78;21216;-81
2022/07/30 11:09:57;;;;;;;8.23;6.28;;;33.00;83.80;;;;;;1812884;77;21204;-79
2022/07/30 11:12:33;;;;;;;8.43;5.50;;;33.00;83.90;;;;;;1762969;77;21730;-81
2022/07/30 11:15:25;;;;;;;6.53;5.60;;;33.00;84.20;;;;;;1810268;78;21478;-79
2022/07/30 11:18:00;;;;;;;7.87;5.60;;;32.90;84.40;;;;;;1758443;80;21133;-83
2022/07/30 11:20:32;;;;;;;9.20;5.90;;;32.90;85.00;;;;;;1831144;77;21121;-81
2022/07/30 11:23:06;;;;;;;8.35;6.75;;;32.90;85.30;;;;;;1843018;78;21152;-79
2022/07/30 11:25:42;;;;;;;8.98;7.17;;;32.80;86.10;;;;;;1841187;78;21153;-84
2022/07/30 11:28:16;;;;;;;14.75;7.60;;;32.80;86.20;;;;;;1840917;77;21061;-81
2022/07/30 11:30:48;;;;;;;11.33;6.90;;;32.60;86.80;;;;;;1840371;77;21095;-82
2022/07/30 11:33:22;;;;;;;8.98;5.97;;;32.50;87.00;;;;;;1840212;78;21089;-81
2022/07/30 11:36:00;;;;;;;15.13;6.08;;;32.30;88.10;;;;;;1841170;77;21135;-82
2022/07/30 11:38:33;;;;;;;9.18;5.55;;;32.00;88.20;;;;;;1841781;77;21118;-81
2022/07/30 11:41:04;;;;;;;6.47;4.87;;;31.90;88.60;;;;;;1836975;78;21214;-81
2022/07/30 11:43:36;;;;;;;8.78;5.30;;;31.70;89.00;;;;;;1842420;78;21215;-82
2022/07/30 11:46:09;;;;;;;10.98;5.67;;;31.50;87.80;;;;;;1821961;78;21167;-80
2022/07/30 11:48:43;;;;;;;9.40;5.65;;;31.40;88.90;;;;;;1800505;78;21167;-81
2022/07/30 11:51:14;;;;;;;8.60;5.33;;;31.20;89.20;;;;;;1835843;78;21070;-79
2022/07/30 11:53:45;;;;;;;9.20;5.53;;;31.20;89.70;;;;;;1835549;78;21149;-79
2022/07/30 11:56:16;;;;;;;10.38;4.83;;;31.10;89.10;;;;;;1829656;78;21210;-80
2022/07/30 11:58:47;;;;;;;12.60;5.85;;;31.10;89.20;;;;;;1832536;78;21086;-82
2022/07/30 12:01:19;;;;;;;8.85;5.40;;;31.00;89.70;;;;;;1829053;78;21182;-81
2022/07/30 12:03:50;;;;;;;8.63;5.78;;;31.00;89.80;;;;;;1839992;77;21090;-81
2022/07/30 12:06:22;;;;;;;8.50;5.85;;;31.00;89.40;;;;;;1835222;76;21579;-79
2022/07/30 12:08:56;;;;;;;9.15;5.85;;;30.90;89.20;;;;;;1870670;75;21076;-80
2022/07/30 12:11:30;;;;;;;8.75;5.50;;;31.00;89.50;;;;;;1841455;77;21146;-80
2022/07/30 12:14:18;;;;;;;7.20;4.72;;;30.90;89.30;;;;;;1853402;75;21180;-82
2022/07/30 12:16:51;;;;;;;10.10;5.40;;;31.00;88.10;;;;;;1856809;75;21191;-81
2022/07/30 12:19:28;;;;;;;7.27;4.17;;;31.00;88.20;;;;;;1859959;75;21647;-80
2022/07/30 12:21:59;;;;;;;6.35;4.10;;;31.00;85.10;;;;;;1890263;75;21188;-80
2022/07/30 12:24:30;;;;;;;6.30;3.37;;;30.90;84.90;;;;;;1878859;75;21183;-80
2022/07/30 12:27:03;;;;;;;4.75;2.90;;;30.90;83.20;;;;;;1843420;78;21117;-80
2022/07/30 12:29:36;;;;;;;4.97;2.95;;;30.80;81.50;;;;;;1875409;75;21235;-80
2022/07/30 12:32:07;;;;;;;7.37;3.27;;;30.80;82.80;;;;;;1879547;74;21209;-81
2022/07/30 12:34:38;;;;;;;6.42;3.33;;;30.80;82.30;;;;;;1876099;75;21120;-83
2022/07/30 12:37:10;;;;;;;6.10;3.00;;;30.80;83.40;;;;;;1889290;75;21272;-80
2022/07/30 12:39:41;;;;;;;5.12;3.60;;;30.80;82.90;;;;;;1879707;75;21610;-80
2022/07/30 12:42:15;;;;;;;9.65;3.77;;;30.80;83.50;;;;;;1880578;75;21075;-80
2022/07/30 12:44:50;;;;;;;6.65;3.60;;;30.70;84.20;;;;;;1890015;75;21217;-81
2022/07/30 12:47:20;;;;;;;5.55;3.85;;;30.70;84.90;;;;;;1877061;75;21090;-79
2022/07/30 12:49:55;;;;;;;4.33;3.12;;;30.80;84.70;;;;;;1833544;76;21188;-81
2022/07/30 12:52:30;;;;;;;4.53;2.92;;;30.80;83.60;;;;;;1840220;76;21557;-81
2022/07/30 12:55:07;;;;;;;7.37;3.10;;;30.70;83.70;;;;;;1839622;76;21090;-82
2022/07/30 12:57:39;;;;;;;4.55;3.33;;;30.70;83.10;;;;;;1807663;78;21169;-80
2022/07/30 13:00:11;;;;;;;5.05;3.50;;;30.70;84.20;;;;;;1796494;78;21726;-81
2022/07/30 13:02:49;;;;;;;5.80;3.37;;;30.70;84.30;;;;;;1837932;76;21170;-79
2022/07/30 13:05:20;;;;;;;6.00;3.67;;;30.60;84.50;;;;;;1816622;78;21148;-80
2022/07/30 13:07:53;;;;;;;5.83;3.80;;;30.60;85.40;;;;;;1813030;77;21600;-80